Time;durP1;ratioP1;P1;durP2;ratioP2;P2;SDS_P1;SDS_P2;PMS_P1;PMS_P2;Temp;Humidity;BMP_temperature;BMP_pressure;BME280_temperature;BME280_humidity;BME280_pressure;Samples;Min_cycle;Max_cycle;Signal;HPM_P1;HPM_P2
2022/08/14 00:00:23;;;;;;;22.27;14.70;;;;;;;18.34;100.00;93957.59;5056505;22;20716;-62
2022/08/14 00:02:50;;;;;;;21.17;13.77;;;;;;;18.43;100.00;93964.19;5050589;28;20205;-61
2022/08/14 00:05:18;;;;;;;18.45;14.63;;;;;;;18.48;100.00;93966.19;5050284;28;20209;-63
2022/08/14 00:07:45;;;;;;;17.10;13.98;;;;;;;18.34;100.00;93945.50;5050351;28;20242;-62
2022/08/14 00:10:14;;;;;;;21.95;14.00;;;;;;;18.33;100.00;93943.94;5050488;28;20304;-63
2022/08/14 00:12:44;;;;;;;16.67;14.73;;;;;;;18.44;100.00;93950.34;5050365;28;20273;-63
2022/08/14 00:15:15;;;;;;;17.38;14.40;;;;;;;18.59;100.00;93947.56;5050366;28;20271;-62
2022/08/14 00:17:42;;;;;;;19.25;15.13;;;;;;;18.69;100.00;93948.78;5050377;28;20189;-62
2022/08/14 00:20:09;;;;;;;19.50;13.90;;;;;;;18.59;100.00;93945.00;5049942;28;20307;-62
2022/08/14 00:22:34;;;;;;;17.83;13.93;;;;;;;18.57;100.00;93936.69;5053553;28;20185;-62
2022/08/14 00:25:00;;;;;;;15.95;13.73;;;;;;;18.56;100.00;93935.09;5053779;28;20201;-62
2022/08/14 00:27:25;;;;;;;16.38;14.35;;;;;;;18.57;100.00;93944.41;5035812;28;20193;-62
2022/08/14 00:29:51;;;;;;;16.50;13.95;;;;;;;18.48;100.00;93940.44;5053621;28;20262;-62
2022/08/14 00:32:17;;;;;;;16.40;12.60;;;;;;;18.54;100.00;93944.81;5053671;28;20648;-62
2022/08/14 00:34:42;;;;;;;16.20;13.63;;;;;;;18.48;100.00;93956.69;5053968;28;20799;-62
2022/08/14 00:37:08;;;;;;;18.98;12.45;;;;;;;18.38;100.00;93941.56;5035532;28;20200;-62
2022/08/14 00:39:34;;;;;;;16.80;12.90;;;;;;;18.48;100.00;93953.31;5053710;28;20213;-63
2022/08/14 00:41:59;;;;;;;18.15;13.10;;;;;;;18.56;100.00;93943.63;5035576;28;20289;-63
2022/08/14 00:44:25;;;;;;;14.95;13.35;;;;;;;18.43;100.00;93939.25;5053481;28;20209;-62
2022/08/14 00:46:50;;;;;;;14.65;11.80;;;;;;;18.28;100.00;93932.66;5053668;28;20208;-62
2022/08/14 00:49:18;;;;;;;20.83;13.23;;;;;;;18.28;100.00;93930.84;5053437;28;20706;-62
2022/08/14 00:51:44;;;;;;;18.98;13.25;;;;;;;18.58;100.00;93946.81;5053251;28;20181;-62
2022/08/14 00:54:12;;;;;;;15.43;12.40;;;;;;;18.39;100.00;93927.72;5053271;28;20220;-62
2022/08/14 00:56:38;;;;;;;11.65;10.43;;;;;;;18.35;100.00;93947.09;5053490;28;20189;-62
2022/08/14 00:59:03;;;;;;;12.02;10.23;;;;;;;18.36;100.00;93950.47;5035384;28;20232;-62
2022/08/14 01:01:34;;;;;;;11.68;10.40;;;;;;;18.28;100.00;93935.22;5053232;28;20190;-62
2022/08/14 01:04:02;;;;;;;11.52;10.20;;;;;;;18.41;100.00;93920.59;5035611;28;20275;-62
2022/08/14 01:06:31;;;;;;;11.40;10.27;;;;;;;18.49;100.00;93916.28;5053087;28;20269;-62
2022/08/14 01:08:59;;;;;;;13.32;9.50;;;;;;;18.33;100.00;93922.56;5035316;28;20225;-62
2022/08/14 01:11:33;;;;;;;10.00;9.10;;;;;;;18.26;100.00;93917.38;5035257;28;20650;-62
2022/08/14 01:14:00;;;;;;;12.70;9.05;;;;;;;18.32;100.00;93913.25;5053357;28;20279;-61
2022/08/14 01:16:29;;;;;;;10.00;8.82;;;;;;;18.39;100.00;93925.16;5052960;28;20186;-60
2022/08/14 01:21:41;;;;;;;15.50;9.38;;;;;;;18.31;100.00;93909.88;5052884;28;20267;-60
2022/08/14 01:24:07;;;;;;;10.55;9.35;;;;;;;18.29;100.00;93911.06;5035100;28;20216;-60
2022/08/14 01:26:35;;;;;;;12.07;9.70;;;;;;;18.20;100.00;93895.00;5052762;28;20244;-61
2022/08/14 01:29:04;;;;;;;9.75;8.88;;;;;;;18.01;100.00;93888.03;5034581;28;20210;-61
2022/08/14 01:31:38;;;;;;;11.88;9.48;;;;;;;18.13;100.00;93898.56;5052991;28;20340;-60
2022/08/14 01:34:05;;;;;;;13.38;9.43;;;;;;;17.90;100.00;93888.59;5052823;28;20205;-60
2022/08/14 01:36:38;;;;;;;11.55;8.65;;;;;;;17.89;100.00;93892.16;5035193;28;20593;-65
2022/08/14 01:39:16;;;;;;;10.85;9.02;;;;;;;17.89;100.00;93892.16;5034667;28;20306;-66
2022/08/14 01:41:59;;;;;;;9.82;8.82;;;;;;;17.86;100.00;93891.72;5052536;28;20200;-66
2022/08/14 01:44:28;;;;;;;11.50;8.90;;;;;;;18.07;100.00;93902.69;5053170;28;20620;-63
2022/08/14 01:46:57;;;;;;;10.23;9.13;;;;;;;18.23;100.00;93922.94;5034776;28;20204;-62
2022/08/14 01:49:24;;;;;;;10.45;9.38;;;;;;;18.20;100.00;93919.97;5052790;28;20264;-62
2022/08/14 01:51:55;;;;;;;13.52;9.13;;;;;;;18.02;100.00;93902.47;5034542;28;20314;-62
2022/08/14 01:54:22;;;;;;;10.05;9.02;;;;;;;17.95;100.00;93899.09;5052879;28;20213;-60
2022/08/14 01:56:56;;;;;;;11.05;9.10;;;;;;;17.77;100.00;93896.25;5052548;28;20315;-61
2022/08/14 01:59:36;;;;;;;11.35;9.00;;;;;;;18.03;100.00;93900.69;5039663;22;20236;-60
2022/08/14 02:02:11;;;;;;;11.05;8.70;;;;;;;17.95;100.00;93881.09;5032658;28;20222;-63
2022/08/14 02:04:37;;;;;;;10.02;8.60;;;;;;;18.07;100.00;93900.13;5032463;28;20287;-64
2022/08/14 02:07:05;;;;;;;9.52;8.45;;;;;;;17.96;100.00;93895.53;5032648;28;20194;-64
2022/08/14 02:09:34;;;;;;;11.55;8.90;;;;;;;17.90;100.00;93900.63;5032499;28;20253;-62
2022/08/14 02:12:02;;;;;;;11.88;10.25;;;;;;;17.80;100.00;93890.72;5014445;28;20189;-62
2022/08/14 02:14:29;;;;;;;13.15;10.38;;;;;;;17.73;100.00;93882.19;5032742;28;20210;-62
2022/08/14 02:16:56;;;;;;;12.68;11.38;;;;;;;17.93;100.00;93879.69;5014430;28;20190;-63
2022/08/14 02:19:25;;;;;;;12.90;10.23;;;;;;;17.97;100.00;93876.56;5014141;28;20230;-62
2022/08/14 02:21:57;;;;;;;14.90;11.18;;;;;;;17.93;100.00;93877.91;5031980;28;20193;-62
2022/08/14 02:24:26;;;;;;;15.88;11.25;;;;;;;17.97;100.00;93876.56;5032177;28;20210;-62
2022/08/14 02:26:52;;;;;;;12.68;11.38;;;;;;;17.97;100.00;93868.03;5014182;28;20186;-62
2022/08/14 02:29:24;;;;;;;17.35;12.10;;;;;;;18.00;100.00;93875.34;5014138;28;20217;-62
2022/08/14 02:31:54;;;;;;;15.27;13.30;;;;;;;18.12;100.00;93874.59;5031975;28;20190;-63
2022/08/14 02:34:21;;;;;;;15.25;13.43;;;;;;;18.01;100.00;93872.59;5014190;28;20206;-63
2022/08/14 02:36:52;;;;;;;14.45;11.57;;;;;;;17.78;100.00;93879.03;5031696;28;20182;-63
2022/08/14 02:39:18;;;;;;;15.65;13.25;;;;;;;17.72;100.00;93879.81;5032000;28;20222;-62
2022/08/14 02:41:51;;;;;;;16.73;12.85;;;;;;;17.79;100.00;93884.00;5013939;28;20269;-62
2022/08/14 02:44:21;;;;;;;14.52;12.40;;;;;;;17.90;100.00;93877.50;5031250;28;20248;-63
2022/08/14 02:46:49;;;;;;;16.73;12.35;;;;;;;17.97;100.00;93876.56;5013864;28;20195;-63
2022/08/14 02:49:14;;;;;;;13.48;11.63;;;;;;;18.02;100.00;93879.31;5013749;28;20287;-63
2022/08/14 02:51:40;;;;;;;16.67;12.38;;;;;;;18.12;100.00;93872.03;5013785;28;20676;-63
2022/08/14 02:54:08;;;;;;;16.10;13.48;;;;;;;18.11;100.00;93867.88;5031711;28;20207;-65
2022/08/14 02:56:37;;;;;;;20.30;17.13;;;;;;;18.03;100.00;93867.25;5031589;28;20681;-66
2022/08/14 02:59:05;;;;;;;20.85;16.35;;;;;;;17.99;100.00;93877.16;5013526;28;20226;-66
2022/08/14 03:01:32;;;;;;;20.13;15.90;;;;;;;17.87;100.00;93868.41;5031524;28;20244;-66
2022/08/14 03:03:58;;;;;;;21.55;16.00;;;;;;;17.78;100.00;93863.59;5013645;28;20253;-66
2022/08/14 03:06:24;;;;;;;24.55;17.52;;;;;;;17.59;100.00;93862.56;5031482;28;20205;-66
2022/08/14 03:08:52;;;;;;;27.40;19.67;;;;;;;17.52;100.00;93869.44;5031233;28;20256;-66
2022/08/14 03:11:20;;;;;;;27.50;19.02;;;;;;;17.57;100.00;93867.88;5013499;28;20786;-65
2022/08/14 03:13:50;;;;;;;25.50;18.20;;;;;;;17.51;100.00;93870.44;5031032;28;20218;-66
2022/08/14 03:16:21;;;;;;;24.15;17.67;;;;;;;17.47;100.00;93874.34;5031707;28;20186;-61
2022/08/14 03:18:52;;;;;;;30.30;21.38;;;;;;;17.44;100.00;93875.50;5031141;28;20218;-61
2022/08/14 03:21:20;;;;;;;26.90;20.08;;;;;;;17.47;100.00;93877.69;5031264;28;20185;-63
2022/08/14 03:23:50;;;;;;;26.20;18.05;;;;;;;17.48;100.00;93875.91;5031177;28;20214;-64
2022/08/14 03:26:18;;;;;;;20.95;16.58;;;;;;;17.55;100.00;93872.41;5013319;28;20232;-64
2022/08/14 03:28:51;;;;;;;23.63;18.63;;;;;;;17.80;100.00;93879.63;5031556;28;20363;-66
2022/08/14 03:31:21;;;;;;;21.63;16.67;;;;;;;17.92;100.00;93884.03;5031429;28;20205;-66
2022/08/14 03:33:47;;;;;;;23.88;18.15;;;;;;;17.92;100.00;93886.63;5031209;28;20260;-62
2022/08/14 03:36:15;;;;;;;26.10;19.63;;;;;;;17.84;100.00;93897.06;5031104;28;20277;-61
2022/08/14 03:38:43;;;;;;;29.35;20.55;;;;;;;17.96;100.00;93895.53;5030462;28;20285;-61
2022/08/14 03:41:15;;;;;;;29.02;22.42;;;;;;;17.90;100.00;93891.16;5030960;28;20240;-65
2022/08/14 03:43:49;;;;;;;30.25;21.52;;;;;;;18.05;100.00;93896.94;5030755;28;20238;-66
2022/08/14 03:46:17;;;;;;;26.60;20.60;;;;;;;18.00;100.00;93901.88;5030898;28;20182;-66
2022/08/14 03:48:44;;;;;;;33.33;22.27;;;;;;;18.11;100.00;93898.75;5031054;28;20205;-61
2022/08/14 03:51:12;;;;;;;26.08;20.98;;;;;;;18.29;100.00;93893.84;5030932;28;20337;-67
2022/08/14 03:53:41;;;;;;;30.23;21.95;;;;;;;18.44;100.00;93909.94;5030863;28;20198;-63
2022/08/14 03:56:15;;;;;;;28.50;21.00;;;;;;;18.65;100.00;93911.53;5029338;28;20182;-64
2022/08/14 03:58:44;;;;;;;30.25;21.05;;;;;;;18.58;100.00;93910.75;5030471;28;20213;-64
2022/08/14 04:01:11;;;;;;;26.90;20.25;;;;;;;18.57;100.00;93904.00;5030531;28;20190;-63
2022/08/14 04:03:37;;;;;;;26.92;21.88;;;;;;;18.30;100.00;93902.38;5030571;28;20210;-63
2022/08/14 04:06:05;;;;;;;31.35;22.23;;;;;;;18.24;100.00;93901.34;5012884;28;20197;-64
2022/08/14 04:08:35;;;;;;;30.77;22.38;;;;;;;18.21;100.00;93898.38;5030494;28;20214;-63
2022/08/14 04:11:01;;;;;;;32.67;21.42;;;;;;;18.35;100.00;93900.00;5012858;28;20221;-64
2022/08/14 04:13:29;;;;;;;30.58;20.85;;;;;;;18.69;100.00;93910.16;5012774;28;20273;-64
2022/08/14 04:15:54;;;;;;;33.40;21.20;;;;;;;18.54;100.00;93909.56;5012606;28;20194;-64
2022/08/14 04:18:20;;;;;;;35.85;24.48;;;;;;;18.28;100.00;93901.78;4996103;28;20732;-64
2022/08/14 04:20:46;;;;;;;42.00;25.60;;;;;;;18.12;100.00;93909.84;5012396;28;20224;-64
2022/08/14 04:23:12;;;;;;;46.67;27.33;;;;;;;18.27;100.00;93900.97;5030024;28;20656;-64
2022/08/14 04:25:38;;;;;;;37.75;25.65;;;;;;;18.11;100.00;93906.47;5012562;28;20194;-64
2022/08/14 04:28:05;;;;;;;44.78;26.40;;;;;;;18.22;100.00;93911.03;5030105;28;20194;-65
2022/08/14 04:30:37;;;;;;;41.15;28.13;;;;;;;18.15;100.00;93902.53;5030747;28;20195;-64
2022/08/14 04:33:04;;;;;;;38.40;24.70;;;;;;;18.21;100.00;93899.19;5030022;28;20183;-64
2022/08/14 04:35:29;;;;;;;38.90;26.67;;;;;;;18.28;100.00;93905.13;5030306;28;20657;-63
2022/08/14 04:43:35;;;;;;;40.28;24.98;;;;;;;18.61;100.00;93907.78;5029947;28;20223;-66
2022/08/14 04:46:14;;;;;;;40.63;27.95;;;;;;;18.61;100.00;93900.06;5012192;28;20198;-65
2022/08/14 04:48:40;;;;;;;37.97;26.23;;;;;;;18.47;100.00;93898.44;5029715;28;20236;-67
2022/08/14 04:51:13;;;;;;;36.72;25.90;;;;;;;18.53;100.00;93902.81;5029787;28;20183;-66
2022/08/14 04:53:42;;;;;;;37.20;25.95;;;;;;;18.42;100.00;93899.00;5011819;28;20244;-67
2022/08/14 04:56:14;;;;;;;38.75;28.67;;;;;;;18.38;100.00;93897.81;5029856;28;20663;-67
2022/08/14 04:58:41;;;;;;;39.30;28.35;;;;;;;18.39;100.00;93896.84;5029707;28;20206;-66
2022/08/14 05:01:08;;;;;;;38.55;26.88;;;;;;;18.42;100.00;93898.22;5030303;28;20178;-59
2022/08/14 05:03:35;;;;;;;41.38;26.88;;;;;;;18.56;100.00;93899.06;5029724;28;20206;-62
2022/08/14 05:06:05;;;;;;;37.80;27.23;;;;;;;18.28;100.00;93899.97;5011986;28;20194;-61
2022/08/14 05:08:32;;;;;;;35.53;26.83;;;;;;;18.53;100.00;93897.66;5032668;28;20236;-62
2022/08/14 05:11:00;;;;;;;32.03;25.00;;;;;;;18.50;100.00;93907.56;5033001;28;20284;-62
2022/08/14 05:13:28;;;;;;;35.92;25.75;;;;;;;18.41;100.00;93897.44;5033234;28;20206;-65
2022/08/14 05:15:57;;;;;;;30.05;24.02;;;;;;;18.78;100.00;93909.00;5033080;28;20244;-67
2022/08/14 05:18:30;;;;;;;33.55;24.25;;;;;;;18.58;100.00;93900.47;5032916;28;20302;-66
2022/08/14 05:20:59;;;;;;;30.20;24.38;;;;;;;18.33;100.00;93905.34;5033047;28;20190;-66
2022/08/14 05:23:27;;;;;;;30.13;21.10;;;;;;;18.68;100.00;93906.00;5015171;28;20213;-67
2022/08/14 05:25:58;;;;;;;27.50;19.55;;;;;;;18.74;100.00;93904.44;5032873;28;20269;-66
2022/08/14 05:28:26;;;;;;;25.95;19.73;;;;;;;18.89;100.00;93912.75;5014986;28;20293;-66
2022/08/14 05:30:58;;;;;;;26.20;19.55;;;;;;;18.87;100.00;93907.78;5014994;28;20214;-66
2022/08/14 05:33:27;;;;;;;25.65;19.08;;;;;;;18.70;100.00;93898.09;5032693;28;20272;-65
2022/08/14 05:35:59;;;;;;;25.52;18.45;;;;;;;18.70;100.00;93910.97;5032684;28;20567;-66
2022/08/14 05:38:32;;;;;;;24.40;17.80;;;;;;;18.89;100.00;93912.75;5032688;28;20281;-66
2022/08/14 05:41:04;;;;;;;24.02;17.20;;;;;;;18.93;100.00;93911.34;5014958;28;20249;-65
2022/08/14 05:43:30;;;;;;;30.75;21.67;;;;;;;18.88;100.00;93917.13;5032512;28;20213;-66
2022/08/14 05:45:57;;;;;;;25.73;18.17;;;;;;;18.75;100.00;93900.84;5032542;28;20265;-66
2022/08/14 05:48:23;;;;;;;31.15;18.63;;;;;;;18.85;100.00;93912.34;4998305;28;20660;-66
2022/08/14 05:50:50;;;;;;;24.30;18.10;;;;;;;18.92;100.00;93917.50;5032487;28;20190;-65
2022/08/14 05:53:17;;;;;;;31.98;20.40;;;;;;;18.56;100.00;93906.78;5032308;28;20185;-67
2022/08/14 05:55:42;;;;;;;30.90;19.55;;;;;;;18.54;100.00;93895.91;5032820;28;20285;-66
2022/08/14 05:58:08;;;;;;;24.52;18.52;;;;;;;18.57;100.00;93905.78;5014505;28;20742;-66
2022/08/14 06:00:37;;;;;;;21.83;17.58;;;;;;;18.63;100.00;93898.06;5014801;28;20202;-66
2022/08/14 06:03:10;;;;;;;25.83;20.23;;;;;;;18.76;100.00;93907.59;5014311;28;20676;-66
2022/08/14 06:05:36;;;;;;;26.83;19.65;;;;;;;19.06;100.00;93914.72;5032204;28;20223;-66
2022/08/14 06:08:13;;;;;;;26.13;18.10;;;;;;;18.92;100.00;93909.78;5032391;28;20186;-64
2022/08/14 06:10:38;;;;;;;25.27;18.42;;;;;;;19.15;100.00;93923.03;5032330;28;20259;-64
2022/08/14 06:13:04;;;;;;;23.17;18.88;;;;;;;19.17;100.00;93913.31;5032187;28;20182;-63
2022/08/14 06:15:29;;;;;;;23.05;18.98;;;;;;;19.29;100.00;93924.59;5063178;22;20225;-65
2022/08/14 06:17:56;;;;;;;21.48;17.42;;;;;;;19.02;100.00;93917.91;5051488;28;20682;-63
2022/08/14 06:20:30;;;;;;;23.50;17.58;;;;;;;18.90;100.00;93911.75;5051433;28;20582;-65
2022/08/14 06:22:58;;;;;;;23.20;17.33;;;;;;;18.98;100.00;93914.94;5034050;28;20193;-65
2022/08/14 06:25:24;;;;;;;20.42;17.63;;;;;;;19.03;100.00;93914.31;5052158;28;20722;-65
2022/08/14 06:27:50;;;;;;;24.33;19.00;;;;;;;19.26;100.00;93922.44;5051843;28;20193;-64
2022/08/14 06:30:22;;;;;;;26.25;19.60;;;;;;;19.20;100.00;93920.66;5052042;28;20193;-64
2022/08/14 06:32:49;;;;;;;23.13;18.42;;;;;;;19.40;100.00;93928.38;5051756;28;20193;-64
2022/08/14 06:35:19;;;;;;;24.65;18.67;;;;;;;19.41;100.00;93923.06;5051942;28;20217;-64
2022/08/14 06:37:50;;;;;;;22.23;18.20;;;;;;;19.32;100.00;93924.22;5051275;28;20251;-64
2022/08/14 06:40:30;;;;;;;23.38;17.73;;;;;;;19.12;100.00;93921.66;5051530;28;20221;-64
2022/08/14 06:43:07;;;;;;;23.13;18.83;;;;;;;19.11;100.00;93916.69;5051334;28;20196;-64
2022/08/14 06:45:35;;;;;;;21.92;17.00;;;;;;;19.12;100.00;93931.97;5051236;28;20204;-63
2022/08/14 06:48:02;;;;;;;22.02;17.83;;;;;;;19.19;100.00;93929.38;5051085;28;20198;-64
2022/08/14 06:50:30;;;;;;;20.95;17.83;;;;;;;19.18;100.00;93930.38;5051143;28;20221;-64
2022/08/14 06:52:57;;;;;;;20.73;16.92;;;;;;;19.17;100.00;93929.56;5051320;28;20186;-65
2022/08/14 06:55:23;;;;;;;21.88;17.30;;;;;;;19.26;100.00;93936.13;5051022;28;20213;-65
2022/08/14 06:57:50;;;;;;;23.45;17.80;;;;;;;19.41;100.00;93943.69;5051249;28;20186;-65
2022/08/14 07:00:21;;;;;;;29.60;19.02;;;;;;;19.37;100.00;93932.19;5051314;28;20527;-64
2022/08/14 07:05:45;;;;;;;24.15;18.88;;;;;;;19.38;100.00;93932.97;5051431;28;20282;-65
2022/08/14 07:08:21;;;;;;;22.23;17.70;;;;;;;19.35;100.00;93928.22;5051094;28;20644;-64
2022/08/14 07:10:52;;;;;;;25.45;19.85;;;;;;;19.50;100.00;93928.75;5051077;28;20193;-64
2022/08/14 07:13:18;;;;;;;27.83;19.63;;;;;;;19.66;100.00;93939.44;5033734;28;20205;-64
2022/08/14 07:15:47;;;;;;;23.15;19.98;;;;;;;19.55;100.00;93932.34;5050901;28;20202;-64
2022/08/14 07:18:13;;;;;;;24.85;19.73;;;;;;;19.60;100.00;93929.13;5050756;28;20193;-63
2022/08/14 07:20:40;;;;;;;27.65;20.20;;;;;;;19.84;100.00;93949.91;5050641;28;20725;-64
2022/08/14 07:23:08;;;;;;;26.67;19.70;;;;;;;19.85;100.00;93946.34;5050696;28;20185;-63
2022/08/14 07:25:36;;;;;;;26.15;20.95;;;;;;;19.87;100.00;93941.78;5050608;28;20193;-63
2022/08/14 07:28:12;;;;;;;24.42;20.17;;;;;;;19.97;100.00;93944.72;5050642;28;20190;-64
2022/08/14 07:30:38;;;;;;;27.95;22.15;;;;;;;19.86;100.00;93924.69;5050551;28;20185;-63
2022/08/14 07:33:05;;;;;;;25.85;19.73;;;;;;;19.71;100.00;93920.78;5050640;28;20185;-64
2022/08/14 07:35:33;;;;;;;22.58;19.40;;;;;;;19.90;100.00;93938.78;5032770;28;20280;-63
2022/08/14 07:38:00;;;;;;;22.13;18.30;;;;;;;19.91;100.00;93935.22;5032454;28;20273;-64
2022/08/14 07:40:25;;;;;;;18.48;16.50;;;;;;;19.96;100.00;93947.47;5050101;28;20225;-64
2022/08/14 07:42:52;;;;;;;16.70;14.38;;;;;;;20.10;100.00;93975.63;5050626;28;20639;-65
2022/08/14 07:45:18;;;;;;;17.88;15.70;;;;;;;20.05;100.00;93959.97;5050423;28;20588;-64
2022/08/14 07:47:44;;;;;;;15.73;13.50;;;;;;;19.95;100.00;93949.28;5050424;28;20192;-64
2022/08/14 07:50:15;;;;;;;12.93;11.63;;;;;;;19.74;100.00;93964.22;5050223;28;20205;-63
2022/08/14 07:52:45;;;;;;;12.90;10.88;;;;;;;19.69;100.00;93964.84;5050274;28;20189;-64
2022/08/14 07:55:12;;;;;;;13.05;11.75;;;;;;;19.96;100.00;93966.34;5050548;28;20300;-63
2022/08/14 07:57:43;;;;;;;13.45;11.90;;;;;;;19.89;100.00;93949.31;5032134;28;20693;-65
2022/08/14 08:00:16;;;;;;;15.88;13.65;;;;;;;19.70;100.00;93953.53;5032261;28;20225;-63
2022/08/14 08:02:44;;;;;;;14.75;11.93;;;;;;;19.76;100.00;93946.75;5050134;28;20194;-64
2022/08/14 08:05:11;;;;;;;19.02;12.48;;;;;;;19.69;100.00;93967.44;5050302;28;20213;-64
2022/08/14 08:07:39;;;;;;;10.93;9.82;;;;;;;19.62;100.00;93958.09;5050037;28;20189;-63
2022/08/14 08:13:06;;;;;;;9.73;8.77;;;;;;;19.93;100.00;94005.47;5050052;28;20187;-63
2022/08/14 08:15:38;;;;;;;10.95;8.98;;;;;;;19.78;100.00;93979.09;5050122;28;20220;-63
2022/08/14 08:18:05;;;;;;;12.02;9.75;;;;;;;19.82;100.00;93966.59;5049819;28;20291;-63
2022/08/14 08:20:37;;;;;;;13.73;11.93;;;;;;;19.63;100.00;93921.81;5049651;28;20217;-63
2022/08/14 08:23:05;;;;;;;14.43;12.18;;;;;;;19.60;100.00;93942.03;5049900;28;20243;-63
2022/08/14 08:25:35;;;;;;;13.73;12.38;;;;;;;19.62;100.00;93927.16;5050025;28;20205;-63
2022/08/14 08:28:07;;;;;;;13.23;11.93;;;;;;;19.82;100.00;93936.44;5050123;28;20193;-64
2022/08/14 08:30:34;;;;;;;15.35;12.95;;;;;;;19.88;100.00;93930.44;5049873;28;20335;-64
2022/08/14 08:33:00;;;;;;;14.98;13.50;;;;;;;19.65;100.00;93908.72;5049920;28;20188;-64
2022/08/14 08:35:29;;;;;;;13.77;12.38;;;;;;;19.87;100.00;93921.16;5049716;28;20217;-64
2022/08/14 08:38:06;;;;;;;13.00;11.60;;;;;;;20.10;100.00;93936.13;5049936;28;20659;-65
2022/08/14 08:40:53;;;;;;;12.80;11.45;;;;;;;20.16;100.00;93940.47;5050160;28;20209;-65
2022/08/14 08:43:27;;;;;;;8.23;7.43;;;;;;;19.84;100.00;93960.22;5051181;28;20276;-64
2022/08/14 08:46:10;;;;;;;10.57;7.85;;;;;;;20.01;100.00;93963.97;5053229;28;20204;-64
2022/08/14 08:48:53;;;;;;;9.23;7.68;;;;;;;20.37;100.00;93975.56;5035253;28;20220;-64
2022/08/14 08:51:29;;;;;;;7.07;6.38;;;;;;;20.11;100.00;93991.91;5053154;28;20181;-66
2022/08/14 08:54:07;;;;;;;6.80;5.65;;;;;;;19.88;100.00;93994.94;5035106;28;20695;-66
2022/08/14 08:56:42;;;;;;;5.80;5.30;;;;;;;19.68;100.00;93989.03;5053301;28;20189;-65
2022/08/14 08:59:30;;;;;;;6.18;5.57;;;;;;;19.58;100.00;93980.94;5053042;28;20227;-65
2022/08/14 09:01:58;;;;;;;6.07;5.38;;;;;;;19.50;100.00;93963.09;5052918;28;20188;-66
2022/08/14 09:04:26;;;;;;;7.53;5.55;;;;;;;19.54;100.00;93943.63;5052942;28;20256;-66
2022/08/14 09:06:53;;;;;;;6.20;5.60;;;;;;;19.66;100.00;93944.59;5034863;28;20217;-64
2022/08/14 09:09:22;;;;;;;6.30;5.70;;;;;;;19.60;100.00;93931.72;5069368;22;20276;-66
2022/08/14 09:11:48;;;;;;;6.70;5.80;;;;;;;19.55;100.00;93934.13;5034822;28;20194;-65
2022/08/14 09:14:14;;;;;;;6.63;6.03;;;;;;;19.69;100.00;93925.38;5052667;28;20205;-65
2022/08/14 09:16:41;;;;;;;6.95;6.35;;;;;;;19.84;100.00;93918.97;5052592;28;20181;-65
2022/08/14 09:19:07;;;;;;;7.10;6.18;;;;;;;19.86;100.00;93913.59;5052751;28;20220;-66
2022/08/14 09:21:33;;;;;;;9.10;6.68;;;;;;;19.87;100.00;93918.56;5052439;28;20192;-66
2022/08/14 09:24:00;;;;;;;6.82;6.22;;;;;;;20.27;100.00;93964.88;5052831;28;20209;-66
2022/08/14 09:26:25;;;;;;;5.07;4.55;;;;;;;20.02;100.00;93988.75;5052682;28;20209;-66
2022/08/14 09:28:52;;;;;;;4.88;4.47;;;;;;;20.27;100.00;93964.88;5034429;28;20369;-65
2022/08/14 09:31:19;;;;;;;4.57;4.18;;;;;;;20.22;100.00;93987.94;5052315;28;20197;-66
2022/08/14 09:33:44;;;;;;;4.60;4.22;;;;;;;20.12;100.00;94008.19;5052183;28;20209;-65
2022/08/14 09:36:37;;;;;;;6.05;4.78;;;;;;;20.41;100.00;93984.47;5052263;28;20190;-64
2022/08/14 09:39:28;;;;;;;6.60;5.13;;;;;;;20.68;100.00;93978.19;5052096;28;20312;-65
2022/08/14 09:42:23;;;;;;;8.20;4.35;;;;;;;20.96;100.00;94012.19;5052446;28;20185;-65
2022/08/14 09:45:07;;;;;;;7.15;4.93;;;;;;;21.48;100.00;94053.22;5034081;28;20221;-65
2022/08/14 09:47:59;;;;;;;6.22;4.78;;;;;;;21.42;100.00;93997.16;5052062;28;20189;-66
2022/08/14 09:50:31;;;;;;;6.30;5.68;;;;;;;21.34;100.00;93963.81;5047302;28;20289;-66
2022/08/14 09:53:06;;;;;;;6.28;5.68;;;;;;;21.72;100.00;93938.56;5051184;28;20250;-66
2022/08/14 09:55:37;;;;;;;7.75;5.82;;;;;;;21.84;100.00;93950.81;5051572;28;20366;-65
2022/08/14 09:58:14;;;;;;;6.60;5.85;;;;;;;21.83;100.00;93960.41;5034960;28;20213;-65
2022/08/14 10:00:53;;;;;;;8.30;6.22;;;;;;;22.33;100.00;94012.81;5052005;28;20229;-66
2022/08/14 10:03:32;;;;;;;9.10;6.13;;;;;;;22.51;100.00;94039.50;5033857;28;20193;-66
2022/08/14 10:06:11;;;;;;;6.15;5.55;;;;;;;22.33;100.00;94011.03;5034096;28;20196;-66
2022/08/14 10:08:49;;;;;;;6.50;5.90;;;;;;;22.15;100.00;93992.09;5051857;28;20225;-64
2022/08/14 10:11:30;;;;;;;9.20;6.57;;;;;;;21.88;100.00;93964.91;5051776;28;20667;-64
2022/08/14 10:14:15;;;;;;;11.77;10.18;;;;;;;21.45;100.00;93995.97;5033993;28;20793;-65
2022/08/14 10:16:46;;;;;;;9.77;8.77;;;;;;;21.14;100.00;93986.44;5051553;28;20268;-66
2022/08/14 10:19:17;;;;;;;15.00;13.52;;;;;;;21.25;100.00;93990.16;5051334;28;20217;-65
2022/08/14 10:21:55;;;;;;;9.13;7.60;;;;;;;21.13;100.00;93946.06;5033935;28;20193;-65
2022/08/14 10:24:25;;;;;;;7.35;6.65;;;;;;;21.14;100.00;93939.13;5051368;28;20279;-65
2022/08/14 10:26:56;;;;;;;6.95;6.22;;;;;;;21.24;100.00;93906.63;5033571;28;20259;-64
2022/08/14 10:29:37;;;;;;;7.15;6.45;;;;;;;21.40;100.00;93975.91;5051896;28;20205;-64
2022/08/14 10:32:04;;;;;;;8.55;6.20;;;;;;;21.55;100.00;93967.81;5051649;28;20197;-66
2022/08/14 10:34:32;;;;;;;7.15;6.53;;;;;;;21.72;100.00;93971.41;5051345;28;20209;-65
2022/08/14 10:37:18;;;;;;;6.95;6.30;;;;;;;21.56;100.00;93982.31;5051284;28;20185;-65
2022/08/14 10:39:59;;;;;;;6.97;5.93;;;;;;;21.21;100.00;93973.47;5051041;28;20221;-64
2022/08/14 10:42:35;;;;;;;7.55;6.95;;;;;;;21.18;100.00;93985.03;5051159;28;20197;-65
2022/08/14 10:45:01;;;;;;;7.88;6.38;;;;;;;21.35;100.00;93975.72;5051037;28;20271;-65
2022/08/14 10:47:35;;;;;;;7.95;7.18;;;;;;;21.31;100.00;93987.50;5051296;28;20181;-60
2022/08/14 10:50:01;;;;;;;12.20;6.00;;;;;;;21.65;100.00;93988.81;5051259;28;20196;-59
2022/08/14 10:52:31;;;;;;;6.93;6.32;;;;;;;21.80;100.00;94004.78;5050804;28;20745;-61
2022/08/14 10:55:07;;;;;;;7.53;6.53;;;;;;;21.55;100.00;93971.16;5051273;28;20213;-60
2022/08/14 10:57:45;;;;;;;7.82;5.72;;;;;;;21.37;100.00;93953.03;5032817;28;20196;-61
2022/08/14 11:00:14;;;;;;;5.43;4.93;;;;;;;21.49;100.00;93964.25;5050954;28;20300;-61
2022/08/14 11:02:41;;;;;;;4.93;4.53;;;;;;;21.51;100.00;93964.84;5050638;28;20237;-60
2022/08/14 11:05:17;;;;;;;5.90;5.30;;;;;;;21.38;100.00;93975.31;5050299;28;20209;-61
2022/08/14 11:08:02;;;;;;;6.10;5.60;;;;;;;21.24;100.00;93971.25;5050864;28;20194;-61
2022/08/14 11:10:47;;;;;;;8.00;4.78;;;;;;;21.33;100.00;93951.88;5032523;28;20304;-61
2022/08/14 11:13:18;;;;;;;5.45;4.93;;;;;;;21.13;100.00;93943.50;5032761;28;20201;-61
2022/08/14 11:15:45;;;;;;;6.15;5.55;;;;;;;21.12;100.00;93941.13;5032642;28;20193;-62
2022/08/14 11:18:11;;;;;;;5.85;5.25;;;;;;;20.99;100.00;93938.63;5032527;28;20571;-60
2022/08/14 11:20:39;;;;;;;6.10;5.60;;;;;;;21.51;100.00;93951.13;5050325;28;20212;-61
2022/08/14 11:23:07;;;;;;;6.32;5.60;;;;;;;21.22;100.00;93960.34;5050582;28;20216;-61
2022/08/14 11:25:36;;;;;;;6.63;5.82;;;;;;;21.27;100.00;93949.38;5050433;28;20308;-61
2022/08/14 11:28:06;;;;;;;5.57;5.07;;;;;;;21.32;100.00;93950.31;5050390;28;20193;-61
2022/08/14 11:30:33;;;;;;;5.93;5.30;;;;;;;21.10;100.00;93931.00;5032381;28;20219;-59
2022/08/14 11:32:59;;;;;;;5.65;4.97;;;;;;;21.32;100.00;93921.84;5050385;28;20335;-61
2022/08/14 11:35:27;;;;;;;5.13;4.72;;;;;;;21.31;100.00;93928.03;5056278;22;20763;-60
2022/08/14 11:38:00;;;;;;;6.53;5.40;;;;;;;21.27;100.00;93957.88;5050281;28;20201;-60
2022/08/14 11:40:29;;;;;;;6.85;5.25;;;;;;;21.19;100.00;93963.34;5049781;28;20245;-60